Back to Top

Language: 

My Weather Underground Personal Weather Station Historical Data with Graphs...

Delerius Weather Station Historical Data
Daily Summary for April 20, 2017 Units:  English    Metric   Both
« Previous Day
Next Day »
Daily Weekly Monthly Yearly Custom
  High: Low: Average:
Temperature: 59.5 °F 46.4 °F 52.7 °F
Dew Point: 50.1 °F 40.4 °F 46.4 °F
Humidity: 94 % 61 % 80 %
Wind Speed: 14.0 mph 0.0 mph 6.2 mph
Wind Gust: 25.0 mph - -
Wind:- - WNW
Pressure: 30.56 in 30.49 in -
Precipitation: 0.02 in    
Historical Graphs
 
 
Tabular Data for April 20, 2017
Time Temperature Dew Point Pressure Wind Wind Speed Wind Gust Humidity Rainfall Rate (Hourly) solar Conditions
00:03 48.4 °F 40.8 °F 30.56 in Calm     75 % 0.00 in 0 W/m2
00:08 48.2 °F 40.6 °F 30.56 in Calm     75 % 0.00 in 0 W/m2
00:13 47.8 °F 40.6 °F 30.56 in Calm     76 % 0.00 in 0 W/m2
00:18 47.5 °F 40.6 °F 30.56 in Calm   1.0 mph 77 % 0.00 in 0 W/m2
00:23 47.3 °F 40.8 °F 30.56 in Calm   1.0 mph 78 % 0.00 in 0 W/m2
00:28 46.9 °F 40.4 °F 30.56 in Calm     78 % 0.00 in 0 W/m2
00:33 46.8 °F 40.6 °F 30.56 in Calm     79 % 0.00 in 0 W/m2
00:38 46.6 °F 40.7 °F 30.56 in Calm   2.0 mph 80 % 0.00 in 0 W/m2
00:43 46.6 °F 41.1 °F 30.56 in Calm   2.0 mph 81 % 0.00 in 0 W/m2
00:44 46.6 °F 41.1 °F 30.56 in Calm   2.0 mph 81 % 0.00 in 0 W/m2
00:49 46.4 °F 41.2 °F 30.56 in Calm   2.0 mph 82 % 0.00 in 0 W/m2
00:54 46.4 °F 41.2 °F 30.56 in West 1.0 mph 4.0 mph 82 % 0.00 in 0 W/m2
00:59 46.4 °F 41.5 °F 30.56 in West 1.0 mph 4.0 mph 83 % 0.00 in 0 W/m2
01:04 46.4 °F 41.5 °F 30.56 in West 1.0 mph 3.0 mph 83 % 0.00 in 0 W/m2
01:09 46.6 °F 41.7 °F 30.56 in West 1.0 mph 2.0 mph 83 % 0.00 in 0 W/m2
01:14 46.6 °F 42.0 °F 30.56 in West 1.0 mph 4.0 mph 84 % 0.00 in 0 W/m2
01:19 46.6 °F 42.0 °F 30.55 in West 1.0 mph 4.0 mph 84 % 0.00 in 0 W/m2
01:24 46.6 °F 42.0 °F 30.55 in West 1.0 mph 4.0 mph 84 % 0.00 in 0 W/m2
01:29 46.6 °F 42.3 °F 30.55 in West 1.0 mph 4.0 mph 85 % 0.00 in 0 W/m2
01:34 46.6 °F 42.3 °F 30.55 in Calm   4.0 mph 85 % 0.00 in 0 W/m2
01:39 46.6 °F 42.6 °F 30.55 in West 1.0 mph 5.0 mph 86 % 0.00 in 0 W/m2
01:44 46.6 °F 42.6 °F 30.55 in West 2.0 mph 5.0 mph 86 % 0.00 in 0 W/m2
01:49 46.6 °F 42.9 °F 30.55 in West 2.0 mph 5.0 mph 87 % 0.00 in 0 W/m2
01:54 46.6 °F 42.9 °F 30.55 in West 2.0 mph 4.0 mph 87 % 0.00 in 0 W/m2
01:59 46.6 °F 42.9 °F 30.55 in West 2.0 mph 5.0 mph 87 % 0.00 in 0 W/m2
02:04 46.6 °F 43.2 °F 30.55 in West 3.0 mph 6.0 mph 88 % 0.00 in 0 W/m2
02:09 46.8 °F 43.7 °F 30.55 in West 3.0 mph 6.0 mph 89 % 0.00 in 0 W/m2
02:14 46.8 °F 43.7 °F 30.55 in West 3.0 mph 6.0 mph 89 % 0.00 in 0 W/m2
02:19 46.9 °F 43.9 °F 30.55 in West 3.0 mph 5.0 mph 89 % 0.00 in 0 W/m2
02:24 46.9 °F 43.9 °F 30.55 in West 2.0 mph 5.0 mph 89 % 0.00 in 0 W/m2
02:29 46.9 °F 43.9 °F 30.55 in West 2.0 mph 5.0 mph 89 % 0.00 in 0 W/m2
02:30 46.9 °F 43.9 °F 30.55 in West 2.0 mph 5.0 mph 89 % 0.00 in 0 W/m2
02:35 46.8 °F 43.7 °F 30.55 in West 2.0 mph 4.0 mph 89 % 0.00 in 0 W/m2
02:40 46.8 °F 44.0 °F 30.55 in West 2.0 mph 4.0 mph 90 % 0.00 in 0 W/m2
02:45 46.8 °F 44.0 °F 30.55 in West 1.0 mph 4.0 mph 90 % 0.00 in 0 W/m2
02:50 46.8 °F 44.0 °F 30.54 in West 1.0 mph 3.0 mph 90 % 0.00 in 0 W/m2
02:55 46.8 °F 44.3 °F 30.54 in West 1.0 mph 4.0 mph 91 % 0.00 in 0 W/m2
03:00 46.9 °F 44.4 °F 30.54 in West 2.0 mph 5.0 mph 91 % 0.00 in 0 W/m2
03:05 47.1 °F 44.6 °F 30.54 in West 2.0 mph 5.0 mph 91 % 0.00 in 0 W/m2
03:10 47.3 °F 44.8 °F 30.54 in West 2.0 mph 5.0 mph 91 % 0.00 in 0 W/m2
03:15 47.5 °F 45.3 °F 30.54 in West 2.0 mph 5.0 mph 92 % 0.00 in 0 W/m2
03:20 47.5 °F 45.3 °F 30.54 in West 2.0 mph 5.0 mph 92 % 0.00 in 0 W/m2
03:25 47.5 °F 45.3 °F 30.54 in West 2.0 mph 5.0 mph 92 % 0.00 in 0 W/m2
03:30 47.7 °F 45.5 °F 30.54 in West 2.0 mph 4.0 mph 92 % 0.00 in 0 W/m2
03:35 47.7 °F 45.5 °F 30.54 in West 1.0 mph 4.0 mph 92 % 0.00 in 0 W/m2
03:40 47.7 °F 45.7 °F 30.54 in West 1.0 mph 4.0 mph 93 % 0.00 in 0 W/m2
03:45 47.8 °F 45.9 °F 30.53 in West 1.0 mph 4.0 mph 93 % 0.00 in 0 W/m2
03:50 47.8 °F 45.9 °F 30.53 in West 1.0 mph 5.0 mph 93 % 0.00 in 0 W/m2
03:55 47.8 °F 45.9 °F 30.53 in West 3.0 mph 8.0 mph 93 % 0.00 in 0 W/m2
04:00 48.0 °F 46.1 °F 30.53 in West 3.0 mph 8.0 mph 93 % 0.01 in 0 W/m2
04:05 48.0 °F 46.1 °F 30.53 in WNW 3.0 mph 7.0 mph 93 % 0.01 in 0 W/m2
04:10 48.2 °F 46.3 °F 30.53 in WNW 3.0 mph 7.0 mph 93 % 0.01 in 0 W/m2
04:15 48.4 °F 46.4 °F 30.53 in WNW 4.0 mph 6.0 mph 93 % 0.01 in 0 W/m2
04:20 48.4 °F 46.4 °F 30.53 in WNW 3.0 mph 6.0 mph 93 % 0.01 in 0 W/m2
04:25 48.4 °F 46.4 °F 30.53 in West 3.0 mph 9.0 mph 93 % 0.01 in 0 W/m2
04:30 48.4 °F 46.4 °F 30.53 in West 5.0 mph 9.0 mph 93 % 0.01 in 0 W/m2
04:35 48.4 °F 46.4 °F 30.53 in West 4.0 mph 8.0 mph 93 % 0.01 in 0 W/m2
04:40 48.4 °F 46.4 °F 30.52 in West 4.0 mph 8.0 mph 93 % 0.01 in 0 W/m2
04:45 48.4 °F 46.4 °F 30.52 in West 4.0 mph 8.0 mph 93 % 0.01 in 0 W/m2
04:50 48.4 °F 46.4 °F 30.52 in West 4.0 mph 9.0 mph 93 % 0.01 in 0 W/m2
04:55 48.4 °F 46.4 °F 30.52 in West 4.0 mph 9.0 mph 93 % 0.01 in 0 W/m2
05:00 48.4 °F 46.4 °F 30.52 in WNW 4.0 mph 7.0 mph 93 % 0.00 in 0 W/m2
05:05 48.4 °F 46.4 °F 30.52 in WNW 4.0 mph 7.0 mph 93 % 0.00 in 0 W/m2
05:10 48.4 °F 46.4 °F 30.52 in WNW 3.0 mph 8.0 mph 93 % 0.00 in 0 W/m2
05:15 48.4 °F 46.4 °F 30.52 in WNW 3.0 mph 8.0 mph 93 % 0.00 in 0 W/m2
05:20 48.4 °F 46.4 °F 30.52 in WNW 3.0 mph 7.0 mph 93 % 0.00 in 0 W/m2
05:26 48.4 °F 46.4 °F 30.52 in West 3.0 mph 7.0 mph 93 % 0.00 in 0 W/m2
05:31 48.4 °F 46.4 °F 30.52 in West 2.0 mph 6.0 mph 93 % 0.00 in 0 W/m2
05:36 48.2 °F 46.3 °F 30.52 in West 2.0 mph 7.0 mph 93 % 0.00 in 0 W/m2
05:41 48.2 °F 46.3 °F 30.52 in West 3.0 mph 8.0 mph 93 % 0.00 in 0 W/m2
05:46 48.2 °F 46.3 °F 30.52 in West 4.0 mph 8.0 mph 93 % 0.00 in 0 W/m2
05:47 48.2 °F 46.3 °F 30.52 in West 4.0 mph 8.0 mph 93 % 0.00 in 0 W/m2
05:52 48.0 °F 46.1 °F 30.52 in WNW 3.0 mph 7.0 mph 93 % 0.00 in 0 W/m2
05:57 48.0 °F 46.1 °F 30.52 in WNW 3.0 mph 7.0 mph 93 % 0.01 in 0 W/m2
06:02 48.0 °F 46.1 °F 30.52 in WNW 3.0 mph 6.0 mph 93 % 0.01 in 5 W/m2
06:07 48.0 °F 46.1 °F 30.53 in WNW 2.0 mph 6.0 mph 93 % 0.01 in 5 W/m2
06:13 48.0 °F 46.1 °F 30.53 in WNW 2.0 mph 6.0 mph 93 % 0.01 in 7 W/m2
06:18 48.0 °F 46.1 °F 30.53 in WNW 2.0 mph 5.0 mph 93 % 0.01 in 7 W/m2
06:23 48.0 °F 46.1 °F 30.53 in WNW 2.0 mph 5.0 mph 93 % 0.01 in 7 W/m2
06:28 48.0 °F 46.1 °F 30.53 in WNW 1.0 mph 5.0 mph 93 % 0.01 in 9 W/m2
06:33 48.0 °F 46.1 °F 30.53 in Calm     93 % 0.01 in 11 W/m2
06:38 48.0 °F 46.1 °F 30.53 in Calm     93 % 0.01 in 11 W/m2
06:43 48.0 °F 46.1 °F 30.53 in Calm   1.0 mph 93 % 0.01 in 14 W/m2
06:48 48.0 °F 46.1 °F 30.53 in Calm   1.0 mph 93 % 0.01 in 19 W/m2
06:53 48.2 °F 46.3 °F 30.53 in Calm     93 % 0.00 in 25 W/m2
06:58 48.4 °F 46.4 °F 30.53 in Calm     93 % 0.00 in 26 W/m2
07:03 48.4 °F 46.7 °F 30.53 in Calm     94 % 0.00 in 32 W/m2
07:08 48.4 °F 46.7 °F 30.53 in Calm   1.0 mph 94 % 0.00 in 39 W/m2
07:13 48.6 °F 46.9 °F 30.53 in Calm   1.0 mph 94 % 0.00 in 42 W/m2
07:18 48.7 °F 47.1 °F 30.53 in Calm   4.0 mph 94 % 0.00 in 37 W/m2
07:23 48.9 °F 47.3 °F 30.53 in Calm   4.0 mph 94 % 0.00 in 37 W/m2
07:28 49.1 °F 47.4 °F 30.54 in Calm   4.0 mph 94 % 0.00 in 42 W/m2
07:33 49.5 °F 47.8 °F 30.54 in West 3.0 mph 10.0 mph 94 % 0.00 in 44 W/m2
07:34 49.5 °F 47.8 °F 30.54 in WNW 3.0 mph 10.0 mph 94 % 0.00 in 46 W/m2
07:39 49.6 °F 48.0 °F 30.54 in WNW 6.0 mph 12.0 mph 94 % 0.00 in 51 W/m2
07:44 49.8 °F 48.2 °F 30.54 in WNW 7.0 mph 13.0 mph 94 % 0.00 in 58 W/m2
07:49 50.0 °F 48.1 °F 30.54 in WNW 7.0 mph 13.0 mph 93 % 0.00 in 63 W/m2
07:55 50.2 °F 48.2 °F 30.54 in WNW 8.0 mph 13.0 mph 93 % 0.00 in 60 W/m2
08:00 50.4 °F 48.4 °F 30.54 in WNW 9.0 mph 14.0 mph 93 % 0.00 in 65 W/m2
08:05 50.4 °F 48.4 °F 30.54 in WNW 8.0 mph 14.0 mph 93 % 0.00 in 74 W/m2
08:10 50.5 °F 48.3 °F 30.54 in WNW 8.0 mph 12.0 mph 92 % 0.00 in 90 W/m2
08:15 50.5 °F 48.3 °F 30.54 in WNW 7.0 mph 12.0 mph 92 % 0.00 in 100 W/m2
08:20 50.7 °F 48.5 °F 30.54 in WNW 6.0 mph 11.0 mph 92 % 0.00 in 100 W/m2
08:25 50.9 °F 48.7 °F 30.54 in WNW 4.0 mph 9.0 mph 92 % 0.00 in 120 W/m2
08:30 51.1 °F 48.8 °F 30.55 in WNW 4.0 mph 8.0 mph 92 % 0.00 in 135 W/m2
08:35 51.3 °F 49.0 °F 30.54 in WNW 4.0 mph 8.0 mph 92 % 0.00 in 181 W/m2
08:40 51.6 °F 49.4 °F 30.54 in WNW 5.0 mph 9.0 mph 92 % 0.00 in 220 W/m2
08:45 52.0 °F 49.4 °F 30.54 in WNW 6.0 mph 12.0 mph 91 % 0.00 in 244 W/m2
08:50 52.3 °F 49.8 °F 30.54 in WNW 6.0 mph 12.0 mph 91 % 0.00 in 200 W/m2
08:55 52.5 °F 49.7 °F 30.54 in WNW 6.0 mph 10.0 mph 90 % 0.00 in 193 W/m2
09:00 52.9 °F 50.0 °F 30.54 in WNW 5.0 mph 10.0 mph 90 % 0.00 in 192 W/m2
09:05 53.1 °F 49.9 °F 30.54 in WNW 7.0 mph 13.0 mph 89 % 0.00 in 178 W/m2
09:10 53.1 °F 49.6 °F 30.54 in WNW 8.0 mph 14.0 mph 88 % 0.00 in 202 W/m2
09:15 53.1 °F 49.6 °F 30.54 in WNW 7.0 mph 14.0 mph 88 % 0.00 in 149 W/m2
09:20 53.2 °F 49.8 °F 30.54 in WNW 5.0 mph 10.0 mph 88 % 0.00 in 156 W/m2
09:25 53.2 °F 49.5 °F 30.54 in WNW 5.0 mph 10.0 mph 87 % 0.00 in 214 W/m2
09:30 53.4 °F 49.6 °F 30.54 in WNW 5.0 mph 11.0 mph 87 % 0.00 in 246 W/m2
09:35 53.8 °F 50.0 °F 30.54 in WNW 5.0 mph 11.0 mph 87 % 0.00 in 137 W/m2
09:40 54.0 °F 49.9 °F 30.53 in WNW 6.0 mph 11.0 mph 86 % 0.00 in 241 W/m2
09:45 54.1 °F 50.0 °F 30.53 in WNW 6.0 mph 11.0 mph 86 % 0.00 in 183 W/m2
09:50 54.5 °F 50.1 °F 30.54 in WNW 7.0 mph 15.0 mph 85 % 0.00 in 105 W/m2
09:55 54.7 °F 49.6 °F 30.54 in WNW 8.0 mph 16.0 mph 83 % 0.00 in 128 W/m2
10:00 54.3 °F 48.6 °F 30.54 in NW 9.0 mph 16.0 mph 81 % 0.00 in 306 W/m2
10:05 54.7 °F 49.3 °F 30.54 in NW 8.0 mph 15.0 mph 82 % 0.00 in 216 W/m2
10:10 54.9 °F 49.1 °F 30.54 in WNW 7.0 mph 15.0 mph 81 % 0.00 in 218 W/m2
10:15 55.0 °F 49.3 °F 30.54 in WNW 7.0 mph 14.0 mph 81 % 0.00 in 258 W/m2
10:20 55.2 °F 49.2 °F 30.54 in WNW 7.0 mph 12.0 mph 80 % 0.00 in 274 W/m2
10:25 55.4 °F 49.0 °F 30.54 in WNW 8.0 mph 14.0 mph 79 % 0.00 in 288 W/m2
10:30 55.6 °F 49.2 °F 30.54 in WNW 8.0 mph 15.0 mph 79 % 0.00 in 311 W/m2
10:35 55.6 °F 48.5 °F 30.54 in WNW 8.0 mph 15.0 mph 77 % 0.00 in 313 W/m2
10:40 55.8 °F 48.7 °F 30.54 in WNW 9.0 mph 16.0 mph 77 % 0.00 in 373 W/m2
10:45 55.9 °F 48.5 °F 30.54 in WNW 10.0 mph 18.0 mph 76 % 0.00 in 392 W/m2
10:50 56.1 °F 48.7 °F 30.54 in WNW 10.0 mph 18.0 mph 76 % 0.00 in 345 W/m2
10:55 56.5 °F 48.6 °F 30.53 in WNW 9.0 mph 16.0 mph 75 % 0.00 in 359 W/m2
11:00 56.7 °F 48.5 °F 30.54 in WNW 9.0 mph 16.0 mph 74 % 0.00 in 383 W/m2
11:05 56.8 °F 48.3 °F 30.54 in NW 9.0 mph 19.0 mph 73 % 0.00 in 403 W/m2
11:11 57.2 °F 48.3 °F 30.53 in NW 9.0 mph 19.0 mph 72 % 0.00 in 332 W/m2
11:16 57.6 °F 48.6 °F 30.53 in NW 8.0 mph 14.0 mph 72 % 0.00 in 353 W/m2
11:21 57.7 °F 48.0 °F 30.54 in WNW 8.0 mph 15.0 mph 70 % 0.00 in 350 W/m2
11:26 57.9 °F 47.8 °F 30.53 in WNW 9.0 mph 18.0 mph 69 % 0.00 in 383 W/m2
11:31 57.9 °F 47.8 °F 30.54 in WNW 10.0 mph 18.0 mph 69 % 0.00 in 397 W/m2
11:36 58.5 °F 49.1 °F 30.53 in WNW 9.0 mph 18.0 mph 71 % 0.00 in 1111 W/m2
11:41 58.8 °F 48.3 °F 30.54 in WNW 10.0 mph 18.0 mph 68 % 0.00 in 209 W/m2
11:46 58.5 °F 47.1 °F 30.54 in WNW 10.0 mph 16.0 mph 66 % 0.00 in 188 W/m2
11:51 57.9 °F 47.4 °F 30.54 in WNW 9.0 mph 16.0 mph 68 % 0.00 in 195 W/m2
11:56 57.6 °F 47.8 °F 30.54 in WNW 8.0 mph 14.0 mph 70 % 0.00 in 195 W/m2
12:01 57.4 °F 48.1 °F 30.54 in WNW 7.0 mph 14.0 mph 71 % 0.00 in 223 W/m2
12:06 57.4 °F 47.7 °F 30.54 in WNW 7.0 mph 14.0 mph 70 % 0.00 in 232 W/m2
12:11 57.2 °F 47.9 °F 30.54 in WNW 8.0 mph 14.0 mph 71 % 0.00 in 221 W/m2
12:16 57.0 °F 47.3 °F 30.54 in WNW 8.0 mph 15.0 mph 70 % 0.00 in 178 W/m2
12:21 57.0 °F 47.7 °F 30.53 in WNW 8.0 mph 15.0 mph 71 % 0.00 in 174 W/m2
12:26 57.0 °F 47.7 °F 30.53 in WNW 8.0 mph 13.0 mph 71 % 0.00 in 204 W/m2
12:31 56.8 °F 47.2 °F 30.53 in WNW 8.0 mph 14.0 mph 70 % 0.00 in 232 W/m2
12:36 57.0 °F 47.3 °F 30.53 in WNW 8.0 mph 14.0 mph 70 % 0.00 in 294 W/m2
12:41 57.2 °F 47.5 °F 30.53 in WNW 8.0 mph 13.0 mph 70 % 0.00 in 343 W/m2
12:46 57.6 °F 47.8 °F 30.53 in WNW 8.0 mph 13.0 mph 70 % 0.00 in 404 W/m2
12:51 57.7 °F 47.6 °F 30.53 in WNW 7.0 mph 12.0 mph 69 % 0.00 in 269 W/m2
12:56 57.7 °F 47.2 °F 30.53 in West 8.0 mph 13.0 mph 68 % 0.00 in 188 W/m2
13:01 57.6 °F 47.5 °F 30.53 in West 8.0 mph 14.0 mph 69 % 0.00 in 257 W/m2
13:06 57.7 °F 47.2 °F 30.53 in WNW 8.0 mph 14.0 mph 68 % 0.00 in 299 W/m2
13:07 57.7 °F 47.6 °F 30.53 in WNW 8.0 mph 14.0 mph 69 % 0.00 in 294 W/m2
13:12 57.9 °F 47.0 °F 30.53 in WNW 8.0 mph 14.0 mph 67 % 0.00 in 225 W/m2
13:17 57.9 °F 47.4 °F 30.53 in West 8.0 mph 21.0 mph 68 % 0.00 in 195 W/m2
13:23 57.6 °F 46.3 °F 30.53 in West 10.0 mph 23.0 mph 66 % 0.00 in 209 W/m2
13:28 57.2 °F 46.7 °F 30.53 in West 11.0 mph 23.0 mph 68 % 0.00 in 209 W/m2
13:33 57.2 °F 46.7 °F 30.53 in WNW 9.0 mph 16.0 mph 68 % 0.00 in 236 W/m2
13:38 57.0 °F 45.8 °F 30.53 in WNW 10.0 mph 16.0 mph 66 % 0.00 in 197 W/m2
13:43 57.0 °F 45.8 °F 30.53 in WNW 10.0 mph 18.0 mph 66 % 0.00 in 181 W/m2
13:48 57.0 °F 45.8 °F 30.53 in WNW 10.0 mph 20.0 mph 66 % 0.00 in 139 W/m2
13:53 56.8 °F 45.6 °F 30.53 in WNW 10.0 mph 20.0 mph 66 % 0.00 in 160 W/m2
13:58 56.8 °F 45.6 °F 30.53 in WNW 10.0 mph 18.0 mph 66 % 0.00 in 200 W/m2
14:03 56.8 °F 46.0 °F 30.53 in WNW 9.0 mph 16.0 mph 67 % 0.00 in 283 W/m2
14:08 57.0 °F 46.6 °F 30.52 in WNW 9.0 mph 15.0 mph 68 % 0.00 in 348 W/m2
14:13 57.4 °F 46.9 °F 30.52 in WNW 9.0 mph 16.0 mph 68 % 0.00 in 415 W/m2
14:18 57.7 °F 46.9 °F 30.52 in West 10.0 mph 16.0 mph 67 % 0.00 in 380 W/m2
14:23 58.3 °F 47.0 °F 30.52 in WNW 10.0 mph 18.0 mph 66 % 0.00 in 359 W/m2
14:28 58.5 °F 47.1 °F 30.52 in WNW 10.0 mph 19.0 mph 66 % 0.00 in 318 W/m2
14:33 58.5 °F 46.7 °F 30.52 in West 11.0 mph 19.0 mph 65 % 0.00 in 272 W/m2
14:38 58.5 °F 46.7 °F 30.51 in West 11.0 mph 18.0 mph 65 % 0.00 in 441 W/m2
14:43 59.2 °F 46.6 °F 30.51 in WNW 10.0 mph 18.0 mph 63 % 0.00 in 397 W/m2
14:48 59.4 °F 45.9 °F 30.51 in WNW 10.0 mph 18.0 mph 61 % 0.00 in 227 W/m2
14:53 59.2 °F 45.7 °F 30.51 in WNW 12.0 mph 23.0 mph 61 % 0.00 in 225 W/m2
14:58 58.6 °F 46.1 °F 30.51 in WNW 13.0 mph 23.0 mph 63 % 0.00 in 381 W/m2
15:03 58.8 °F 46.7 °F 30.51 in WNW 13.0 mph 22.0 mph 64 % 0.00 in 313 W/m2
15:08 58.6 °F 46.1 °F 30.51 in West 13.0 mph 25.0 mph 63 % 0.00 in 323 W/m2
15:13 58.5 °F 45.9 °F 30.51 in WNW 14.0 mph 25.0 mph 63 % 0.00 in 308 W/m2
15:18 58.5 °F 46.3 °F 30.51 in WNW 12.0 mph 22.0 mph 64 % 0.00 in 418 W/m2
15:23 58.6 °F 46.9 °F 30.51 in WNW 12.0 mph 21.0 mph 65 % 0.00 in 360 W/m2
15:28 58.8 °F 47.1 °F 30.51 in WNW 13.0 mph 23.0 mph 65 % 0.00 in 418 W/m2
15:33 59.4 °F 47.2 °F 30.51 in WNW 13.0 mph 23.0 mph 64 % 0.00 in 545 W/m2
15:38 59.5 °F 46.9 °F 30.50 in WNW 12.0 mph 23.0 mph 63 % 0.00 in 366 W/m2
15:39 59.5 °F 46.5 °F 30.50 in WNW 12.0 mph 23.0 mph 62 % 0.00 in 336 W/m2
15:44 59.4 °F 46.8 °F 30.51 in WNW 11.0 mph 22.0 mph 63 % 0.00 in 304 W/m2
15:49 59.4 °F 46.3 °F 30.50 in WNW 11.0 mph 23.0 mph 62 % 0.00 in 308 W/m2
15:54 59.4 °F 46.8 °F 30.50 in NW 11.0 mph 23.0 mph 63 % 0.00 in 364 W/m2
15:59 59.4 °F 47.2 °F 30.50 in WNW 11.0 mph 21.0 mph 64 % 0.00 in 367 W/m2
16:04 59.2 °F 47.0 °F 30.50 in WNW 12.0 mph 24.0 mph 64 % 0.00 in 355 W/m2
16:09 59.2 °F 47.0 °F 30.50 in WNW 12.0 mph 24.0 mph 64 % 0.00 in 278 W/m2
16:14 59.2 °F 47.0 °F 30.50 in WNW 11.0 mph 23.0 mph 64 % 0.00 in 306 W/m2
16:19 59.2 °F 47.4 °F 30.50 in WNW 12.0 mph 23.0 mph 65 % 0.00 in 323 W/m2
16:24 59.0 °F 47.2 °F 30.50 in WNW 11.0 mph 21.0 mph 65 % 0.00 in 292 W/m2
16:29 59.0 °F 47.2 °F 30.49 in WNW 11.0 mph 20.0 mph 65 % 0.00 in 251 W/m2
16:35 58.8 °F 47.1 °F 30.49 in WNW 10.0 mph 20.0 mph 65 % 0.00 in 258 W/m2
16:40 59.0 °F 47.2 °F 30.49 in NW 9.0 mph 18.0 mph 65 % 0.00 in 248 W/m2
16:45 59.0 °F 47.2 °F 30.49 in NW 9.0 mph 18.0 mph 65 % 0.00 in 246 W/m2
16:50 59.0 °F 47.2 °F 30.49 in NW 10.0 mph 18.0 mph 65 % 0.00 in 246 W/m2
16:55 59.0 °F 46.8 °F 30.49 in WNW 10.0 mph 18.0 mph 64 % 0.00 in 211 W/m2
17:00 58.8 °F 46.7 °F 30.49 in WNW 10.0 mph 18.0 mph 64 % 0.00 in 190 W/m2
17:05 58.8 °F 46.7 °F 30.49 in WNW 11.0 mph 19.0 mph 64 % 0.00 in 155 W/m2
17:10 58.5 °F 45.9 °F 30.49 in WNW 11.0 mph 20.0 mph 63 % 0.00 in 141 W/m2
17:15 58.3 °F 46.2 °F 30.49 in WNW 11.0 mph 20.0 mph 64 % 0.00 in 142 W/m2
17:20 58.3 °F 46.6 °F 30.49 in WNW 10.0 mph 18.0 mph 65 % 0.00 in 137 W/m2
17:25 58.1 °F 46.4 °F 30.49 in WNW 8.0 mph 15.0 mph 65 % 0.00 in 107 W/m2
17:30 57.9 °F 46.6 °F 30.49 in WNW 8.0 mph 16.0 mph 66 % 0.00 in 139 W/m2
17:35 57.9 °F 46.6 °F 30.49 in WNW 10.0 mph 18.0 mph 66 % 0.00 in 149 W/m2
17:40 57.6 °F 46.3 °F 30.49 in WNW 12.0 mph 22.0 mph 66 % 0.00 in 127 W/m2
17:45 57.0 °F 46.2 °F 30.49 in WNW 13.0 mph 22.0 mph 67 % 0.00 in 114 W/m2
17:50 56.8 °F 46.0 °F 30.49 in WNW 12.0 mph 21.0 mph 67 % 0.00 in 102 W/m2
17:55 56.8 °F 46.4 °F 30.49 in WNW 11.0 mph 20.0 mph 68 % 0.00 in 93 W/m2
18:00 56.7 °F 46.6 °F 30.50 in WNW 10.0 mph 20.0 mph 69 % 0.00 in 86 W/m2
18:05 56.5 °F 46.4 °F 30.49 in WNW 11.0 mph 19.0 mph 69 % 0.00 in 77 W/m2
18:10 56.5 °F 46.8 °F 30.50 in WNW 11.0 mph 19.0 mph 70 % 0.00 in 67 W/m2
18:15 56.1 °F 46.5 °F 30.50 in WNW 12.0 mph 20.0 mph 70 % 0.00 in 63 W/m2
18:20 56.1 °F 46.8 °F 30.50 in WNW 11.0 mph 20.0 mph 71 % 0.00 in 49 W/m2
18:25 55.9 °F 46.7 °F 30.50 in WNW 10.0 mph 18.0 mph 71 % 0.00 in 69 W/m2
18:30 55.9 °F 46.7 °F 30.50 in WNW 9.0 mph 16.0 mph 71 % 0.00 in 76 W/m2
18:35 55.8 °F 46.9 °F 30.50 in WNW 9.0 mph 18.0 mph 72 % 0.00 in 65 W/m2
18:40 55.8 °F 46.9 °F 30.50 in WNW 9.0 mph 19.0 mph 72 % 0.00 in 67 W/m2
18:45 55.6 °F 46.7 °F 30.49 in WNW 10.0 mph 19.0 mph 72 % 0.00 in 54 W/m2
18:50 55.6 °F 47.1 °F 30.49 in WNW 10.0 mph 19.0 mph 73 % 0.00 in 60 W/m2
18:56 55.6 °F 47.4 °F 30.50 in WNW 8.0 mph 19.0 mph 74 % 0.00 in 49 W/m2
19:01 55.4 °F 47.2 °F 30.50 in WNW 7.0 mph 15.0 mph 74 % 0.00 in 46 W/m2
19:06 55.2 °F 47.1 °F 30.50 in WNW 8.0 mph 15.0 mph 74 % 0.00 in 33 W/m2
19:11 55.0 °F 47.3 °F 30.50 in WNW 7.0 mph 15.0 mph 75 % 0.00 in 32 W/m2
19:16 54.9 °F 47.1 °F 30.50 in WNW 7.0 mph 14.0 mph 75 % 0.00 in 28 W/m2
19:21 54.9 °F 47.1 °F 30.50 in WNW 8.0 mph 15.0 mph 75 % 0.00 in 30 W/m2
19:26 54.7 °F 46.9 °F 30.49 in WNW 8.0 mph 18.0 mph 75 % 0.00 in 26 W/m2
19:31 54.7 °F 47.3 °F 30.50 in WNW 8.0 mph 18.0 mph 76 % 0.00 in 26 W/m2
19:36 54.7 °F 47.3 °F 30.49 in WNW 8.0 mph 13.0 mph 76 % 0.00 in 23 W/m2
19:41 54.3 °F 46.9 °F 30.49 in West 7.0 mph 13.0 mph 76 % 0.00 in 19 W/m2
19:42 54.3 °F 46.9 °F 30.50 in West 7.0 mph 13.0 mph 76 % 0.00 in 19 W/m2
19:47 54.3 °F 46.9 °F 30.49 in WNW 7.0 mph 14.0 mph 76 % 0.00 in 18 W/m2
19:52 54.1 °F 47.1 °F 30.49 in WNW 7.0 mph 14.0 mph 77 % 0.00 in 14 W/m2
19:57 54.1 °F 47.1 °F 30.49 in West 7.0 mph 12.0 mph 77 % 0.00 in 11 W/m2
20:02 54.0 °F 46.9 °F 30.49 in WNW 6.0 mph 12.0 mph 77 % 0.00 in 9 W/m2
20:07 54.0 °F 46.9 °F 30.49 in WNW 6.0 mph 11.0 mph 77 % 0.00 in 7 W/m2
20:12 53.8 °F 47.1 °F 30.49 in WNW 6.0 mph 12.0 mph 78 % 0.00 in 5 W/m2
20:17 53.4 °F 46.7 °F 30.49 in WNW 7.0 mph 14.0 mph 78 % 0.00 in 0 W/m2
20:18 53.4 °F 46.7 °F 30.49 in WNW 7.0 mph 14.0 mph 78 % 0.00 in 0 W/m2
20:23 53.2 °F 46.9 °F 30.49 in West 8.0 mph 14.0 mph 79 % 0.00 in 0 W/m2
20:28 53.1 °F 46.7 °F 30.49 in WNW 6.0 mph 13.0 mph 79 % 0.00 in 0 W/m2
20:33 53.1 °F 46.7 °F 30.49 in WNW 6.0 mph 13.0 mph 79 % 0.00 in 0 W/m2
20:38 53.1 °F 46.7 °F 30.49 in WNW 7.0 mph 14.0 mph 79 % 0.00 in 0 W/m2
20:43 52.9 °F 46.5 °F 30.49 in WNW 6.0 mph 14.0 mph 79 % 0.00 in 0 W/m2
20:48 52.9 °F 46.9 °F 30.49 in WNW 4.0 mph 10.0 mph 80 % 0.00 in 0 W/m2
20:53 52.9 °F 46.9 °F 30.49 in WNW 5.0 mph 12.0 mph 80 % 0.00 in 0 W/m2
20:58 52.9 °F 46.9 °F 30.49 in WNW 7.0 mph 12.0 mph 80 % 0.00 in 0 W/m2
21:03 52.9 °F 46.9 °F 30.49 in WNW 7.0 mph 14.0 mph 80 % 0.00 in 0 W/m2
21:08 52.9 °F 46.9 °F 30.49 in WNW 7.0 mph 14.0 mph 80 % 0.00 in 0 W/m2
21:13 52.9 °F 46.9 °F 30.50 in WNW 7.0 mph 14.0 mph 80 % 0.00 in 0 W/m2
21:18 52.7 °F 46.7 °F 30.50 in WNW 6.0 mph 12.0 mph 80 % 0.00 in 0 W/m2
21:23 52.5 °F 46.5 °F 30.50 in WNW 6.0 mph 12.0 mph 80 % 0.00 in 0 W/m2
21:27 52.5 °F 46.5 °F 30.50 in WNW 6.0 mph 12.0 mph 80 % 0.00 in 0 W/m2
21:32 52.5 °F 46.5 °F 30.50 in WNW 6.0 mph 12.0 mph 80 % 0.00 in 0 W/m2
21:37 52.3 °F 46.4 °F 30.50 in WNW 5.0 mph 11.0 mph 80 % 0.00 in 0 W/m2
21:42 52.2 °F 46.5 °F 30.49 in WNW 6.0 mph 14.0 mph 81 % 0.00 in 0 W/m2
21:47 52.0 °F 46.3 °F 30.49 in WNW 6.0 mph 14.0 mph 81 % 0.00 in 0 W/m2
21:52 51.6 °F 46.0 °F 30.49 in WNW 7.0 mph 13.0 mph 81 % 0.00 in 0 W/m2
21:58 51.4 °F 46.1 °F 30.49 in WNW 7.0 mph 13.0 mph 82 % 0.00 in 0 W/m2
22:03 51.4 °F 46.1 °F 30.49 in WNW 6.0 mph 12.0 mph 82 % 0.00 in 0 W/m2
22:08 51.3 °F 46.3 °F 30.49 in WNW 6.0 mph 12.0 mph 83 % 0.00 in 0 W/m2
22:13 51.1 °F 46.1 °F 30.49 in WNW 6.0 mph 12.0 mph 83 % 0.00 in 0 W/m2
22:18 50.9 °F 45.9 °F 30.49 in WNW 6.0 mph 12.0 mph 83 % 0.00 in 0 W/m2
22:23 50.7 °F 45.7 °F 30.49 in WNW 5.0 mph 10.0 mph 83 % 0.00 in 0 W/m2
22:28 50.5 °F 45.6 °F 30.50 in WNW 4.0 mph 10.0 mph 83 % 0.00 in 0 W/m2
22:33 50.4 °F 45.7 °F 30.50 in WNW 5.0 mph 10.0 mph 84 % 0.00 in 0 W/m2
22:38 50.4 °F 45.7 °F 30.49 in WNW 5.0 mph 12.0 mph 84 % 0.00 in 0 W/m2
22:43 50.2 °F 45.5 °F 30.49 in WNW 6.0 mph 12.0 mph 84 % 0.00 in 0 W/m2
22:48 50.0 °F 45.4 °F 30.49 in WNW 6.0 mph 14.0 mph 84 % 0.00 in 0 W/m2
22:53 50.0 °F 45.7 °F 30.49 in WNW 6.0 mph 14.0 mph 85 % 0.00 in 0 W/m2
22:55 49.8 °F 45.5 °F 30.49 in WNW 7.0 mph 12.0 mph 85 % 0.00 in 0 W/m2
23:00 49.8 °F 45.5 °F 30.49 in WNW 7.0 mph 13.0 mph 85 % 0.00 in 0 W/m2
23:05 49.8 °F 45.5 °F 30.49 in WNW 8.0 mph 14.0 mph 85 % 0.00 in 0 W/m2
23:10 49.8 °F 45.5 °F 30.49 in WNW 7.0 mph 14.0 mph 85 % 0.00 in 0 W/m2
23:15 49.6 °F 45.6 °F 30.49 in WNW 5.0 mph 10.0 mph 86 % 0.00 in 0 W/m2
23:20 49.6 °F 45.6 °F 30.50 in WNW 5.0 mph 10.0 mph 86 % 0.00 in 0 W/m2
23:25 49.6 °F 45.6 °F 30.49 in WNW 5.0 mph 10.0 mph 86 % 0.00 in 0 W/m2
23:30 49.5 °F 45.4 °F 30.49 in WNW 6.0 mph 11.0 mph 86 % 0.00 in 0 W/m2
23:35 49.5 °F 45.4 °F 30.49 in WNW 7.0 mph 13.0 mph 86 % 0.00 in 0 W/m2
23:40 49.5 °F 45.4 °F 30.49 in WNW 8.0 mph 13.0 mph 86 % 0.00 in 0 W/m2
23:45 49.5 °F 45.4 °F 30.49 in WNW 7.0 mph 13.0 mph 86 % 0.00 in 0 W/m2
23:50 49.3 °F 45.6 °F 30.49 in WNW 6.0 mph 13.0 mph 87 % 0.00 in 0 W/m2
23:55 49.3 °F 45.6 °F 30.49 in WNW 6.0 mph 11.0 mph 87 % 0.00 in 0 W/m2
Delerius-Weather
Compliments of Weather Underground - 2.25 mb

Data updates at regular intervals.